createdAt,value
2019-03-21T00:00:57.061Z,102603.74
2019-03-21T00:03:28.306Z,102598.00
2019-03-21T00:05:59.359Z,102602.30
2019-03-21T00:08:30.671Z,102602.30
2019-03-21T00:11:05.005Z,102605.80
2019-03-21T00:13:36.428Z,102603.09
2019-03-21T00:16:10.561Z,102601.52
2019-03-21T00:18:41.872Z,102615.81
2019-03-21T00:21:13.056Z,102615.16
2019-03-21T00:23:44.158Z,102615.30
2019-03-21T00:26:15.061Z,102615.81
2019-03-21T00:28:46.675Z,102615.02
2019-03-21T00:31:17.903Z,102609.83
2019-03-21T00:33:49.071Z,102611.67
2019-03-21T00:36:20.663Z,102611.39
2019-03-21T00:38:51.983Z,102610.36
2019-03-21T00:41:23.150Z,102612.95
2019-03-21T00:43:54.085Z,102607.09
2019-03-21T00:46:25.206Z,102612.69
2019-03-21T00:48:56.114Z,102613.48
2019-03-21T00:51:27.267Z,102605.53
2019-03-21T00:53:58.362Z,102607.49
2019-03-21T00:56:29.492Z,102616.45
2019-03-21T00:59:00.867Z,102615.16
2019-03-21T01:01:32.189Z,102616.47
2019-03-21T01:04:03.706Z,102611.14
2019-03-21T01:06:35.133Z,102610.62
2019-03-21T01:09:09.226Z,102606.33
2019-03-21T01:11:40.291Z,102604.78
2019-03-21T01:14:11.541Z,102602.03
2019-03-21T01:16:42.729Z,102606.83
2019-03-21T01:19:14.847Z,102595.14
2019-03-21T01:21:45.823Z,102603.22
2019-03-21T01:24:16.921Z,102595.14
2019-03-21T01:26:48.029Z,102587.73
2019-03-21T01:29:19.050Z,102584.25
2019-03-21T01:31:50.240Z,102576.58
2019-03-21T01:34:21.096Z,102584.11
2019-03-21T01:36:52.286Z,102579.55
2019-03-21T01:39:23.581Z,102577.73
2019-03-21T01:41:54.823Z,102575.78
2019-03-21T01:44:25.530Z,102572.69
2019-03-21T01:46:56.746Z,102580.09
2019-03-21T01:49:28.448Z,102580.09
2019-03-21T01:51:59.381Z,102577.73
2019-03-21T01:54:30.491Z,102579.81
2019-03-21T01:57:01.592Z,102586.59
2019-03-21T01:59:44.951Z,102582.03
2019-03-21T02:02:16.087Z,102584.75
2019-03-21T02:04:46.949Z,102586.33
2019-03-21T02:07:18.146Z,102582.81
2019-03-21T02:09:48.870Z,102586.46
2019-03-21T02:12:19.857Z,102586.05
2019-03-21T02:14:52.327Z,102576.05
2019-03-21T02:17:23.538Z,102582.41
2019-03-21T02:19:54.916Z,102584.25
2019-03-21T02:22:26.052Z,102586.46
2019-03-21T02:24:57.080Z,102585.55
2019-03-21T02:27:29.525Z,102586.59
2019-03-21T02:30:00.669Z,102578.91
2019-03-21T02:32:33.308Z,102566.55
2019-03-21T02:35:06.318Z,102571.00
2019-03-21T02:37:37.308Z,102572.95
2019-03-21T02:40:11.748Z,102568.25
2019-03-21T02:42:43.024Z,102572.95
2019-03-21T02:45:16.160Z,102566.33
2019-03-21T02:47:47.177Z,102573.84
2019-03-21T02:50:21.485Z,102573.70
2019-03-21T02:52:52.719Z,102576.59
2019-03-21T02:55:24.842Z,102574.89
2019-03-21T02:57:56.089Z,102574.10
2019-03-21T03:00:30.504Z,102569.56
2019-03-21T03:03:01.989Z,102567.47
2019-03-21T03:05:34.349Z,102575.68
2019-03-21T03:08:06.998Z,102575.28
2019-03-21T03:10:40.648Z,102581.50
2019-03-21T03:13:11.592Z,102578.02
2019-03-21T03:15:43.336Z,102573.83
2019-03-21T03:18:17.591Z,102575.92
2019-03-21T03:20:48.904Z,102575.27
2019-03-21T03:23:20.383Z,102574.76
2019-03-21T03:25:51.653Z,102565.55
2019-03-21T03:28:26.276Z,102565.15
2019-03-21T03:30:59.098Z,102570.33
2019-03-21T03:33:29.905Z,102565.55
2019-03-21T03:36:01.299Z,102579.58
2019-03-21T03:38:33.406Z,102579.84
2019-03-21T03:41:07.906Z,102572.29
2019-03-21T03:43:39.209Z,102572.27
2019-03-21T03:46:10.148Z,102580.48
2019-03-21T03:48:41.380Z,102578.39
2019-03-21T03:51:12.886Z,102584.62
2019-03-21T03:53:44.433Z,102588.02
2019-03-21T03:56:15.688Z,102586.97
2019-03-21T03:58:50.369Z,102583.35
2019-03-21T04:01:21.514Z,102585.81
2019-03-21T04:03:52.846Z,102584.52
2019-03-21T04:06:24.056Z,102591.52
2019-03-21T04:08:55.301Z,102588.28
2019-03-21T04:11:26.895Z,102585.40
2019-03-21T04:13:57.904Z,102578.91
2019-03-21T04:16:29.086Z,102586.84
2019-03-21T04:19:00.426Z,102593.74
2019-03-21T04:21:32.108Z,102589.19
2019-03-21T04:24:03.021Z,102582.44
2019-03-21T04:26:36.551Z,102588.80
2019-03-21T04:29:07.869Z,102585.16
2019-03-21T04:31:39.168Z,102588.92
2019-03-21T04:34:11.236Z,102595.30
2019-03-21T04:36:42.234Z,102592.55
2019-03-21T04:39:13.044Z,102595.02
2019-03-21T04:41:47.008Z,102589.16
2019-03-21T04:44:18.570Z,102593.34
2019-03-21T04:46:49.557Z,102594.25
2019-03-21T04:49:20.511Z,102598.66
2019-03-21T04:51:51.758Z,102602.82
2019-03-21T04:54:22.528Z,102602.97
2019-03-21T04:56:54.509Z,102598.02
2019-03-21T04:59:25.622Z,102604.13
2019-03-21T05:01:56.988Z,102612.46
2019-03-21T05:04:28.007Z,102615.97
2019-03-21T05:06:59.209Z,102615.57
2019-03-21T05:09:30.461Z,102622.72
2019-03-21T05:12:01.417Z,102628.95
2019-03-21T05:14:32.985Z,102625.05
2019-03-21T05:17:04.447Z,102622.60
2019-03-21T05:19:35.533Z,102621.02
2019-03-21T05:22:06.512Z,102616.46
2019-03-21T05:24:37.924Z,102611.55
2019-03-21T05:27:09.230Z,102613.75
2019-03-21T05:29:40.474Z,102621.56
2019-03-21T05:32:11.630Z,102622.08
2019-03-21T05:34:43.029Z,102618.56
2019-03-21T05:37:14.811Z,102621.02
2019-03-21T05:39:48.896Z,102627.27
2019-03-21T05:42:20.128Z,102624.91
2019-03-21T05:44:51.185Z,102623.11
2019-03-21T05:47:22.097Z,102626.10
2019-03-21T05:49:54.344Z,102626.48
2019-03-21T05:52:25.414Z,102632.21
2019-03-21T05:54:57.727Z,102629.84
2019-03-21T05:57:32.769Z,102635.44
2019-03-21T06:00:08.608Z,102645.84
2019-03-21T06:10:05.429Z,102662.61
2019-03-21T06:12:39.512Z,102660.01
2019-03-21T06:15:14.582Z,102664.05
2019-03-21T06:35:26.969Z,102679.25
2019-03-21T06:37:58.494Z,102682.34
2019-03-21T06:40:29.764Z,102690.02
2019-03-21T06:43:00.643Z,102689.34
2019-03-21T06:45:31.799Z,102696.78
2019-03-21T06:48:02.727Z,102688.97
2019-03-21T06:50:33.854Z,102688.06
2019-03-21T06:53:04.631Z,102690.13
2019-03-21T06:55:35.494Z,102680.70
2019-03-21T06:58:06.566Z,102682.41
2019-03-21T07:00:37.439Z,102689.92
2019-03-21T07:03:08.627Z,102676.10
2019-03-21T07:05:39.608Z,102675.16
2019-03-21T07:08:10.705Z,102677.72
2019-03-21T07:10:42.227Z,102679.14
2019-03-21T07:13:13.719Z,102685.36
2019-03-21T07:15:45.181Z,102686.36
2019-03-21T07:18:16.357Z,102691.16
2019-03-21T07:20:48.713Z,102699.73
2019-03-21T07:23:20.121Z,102701.20
2019-03-21T07:25:51.317Z,102703.25
2019-03-21T07:28:22.494Z,102705.49
2019-03-21T07:30:53.483Z,102709.00
2019-03-21T07:33:24.964Z,102706.64
2019-03-21T07:35:56.124Z,102706.26
2019-03-21T07:38:27.062Z,102702.99
2019-03-21T07:40:58.739Z,102714.57
2019-03-21T07:43:29.884Z,102714.91
2019-03-21T07:46:01.374Z,102714.36
2019-03-21T07:48:32.278Z,102714.74
2019-03-21T07:51:04.072Z,102714.66
2019-03-21T07:53:35.157Z,102707.59
2019-03-21T07:56:06.110Z,102710.78
2019-03-21T07:58:38.327Z,102717.23
2019-03-21T08:01:09.719Z,102711.57
2019-03-21T08:03:40.953Z,102718.70
2019-03-21T08:06:12.182Z,102718.52
2019-03-21T08:08:43.793Z,102718.22
2019-03-21T08:11:15.366Z,102719.50
2019-03-21T08:13:47.054Z,102723.81
2019-03-21T08:16:18.182Z,102716.70
2019-03-21T08:18:50.454Z,102719.73
2019-03-21T08:21:22.315Z,102726.82
2019-03-21T08:23:53.956Z,102727.83
2019-03-21T08:26:25.138Z,102728.55
2019-03-21T08:28:57.610Z,102728.89
2019-03-21T08:31:29.392Z,102731.30
2019-03-21T08:34:00.657Z,102731.64
2019-03-21T08:36:32.217Z,102724.97
2019-03-21T08:39:04.822Z,102727.63
2019-03-21T08:41:36.380Z,102727.19
2019-03-21T08:44:08.136Z,102722.50
2019-03-21T08:46:42.197Z,102714.77
2019-03-21T08:49:16.595Z,102714.09
2019-03-21T08:51:48.361Z,102713.11
2019-03-21T08:54:19.958Z,102711.13
2019-03-21T08:56:51.137Z,102718.30
2019-03-21T08:59:22.335Z,102717.87
2019-03-21T09:01:56.356Z,102716.34
2019-03-21T09:04:28.234Z,102720.41
2019-03-21T09:06:59.902Z,102720.11
2019-03-21T09:09:31.238Z,102717.02
2019-03-21T09:12:03.921Z,102713.23
2019-03-21T09:14:36.570Z,102711.91
2019-03-21T09:17:07.611Z,102711.92
2019-03-21T09:19:40.319Z,102708.77
2019-03-21T09:22:11.372Z,102707.16
2019-03-21T09:24:42.443Z,102717.20
2019-03-21T09:27:13.474Z,102713.77
2019-03-21T09:29:53.470Z,102721.89
2019-03-21T09:32:20.064Z,102725.18
2019-03-21T09:34:51.035Z,102721.08
2019-03-21T09:37:22.567Z,102717.86
2019-03-21T09:39:53.934Z,102710.70
2019-03-21T09:42:25.143Z,102717.56
2019-03-21T09:44:57.094Z,102718.62
2019-03-21T09:47:28.005Z,102713.30
2019-03-21T09:50:00.047Z,102712.30
2019-03-21T09:52:31.646Z,102710.45
2019-03-21T09:55:07.156Z,102714.75
2019-03-21T09:57:39.077Z,102709.69
2019-03-21T10:00:11.237Z,102712.28
2019-03-21T10:02:42.396Z,102712.78
2019-03-21T10:05:13.683Z,102707.59
2019-03-21T10:07:44.628Z,102701.80
2019-03-21T10:10:19.122Z,102705.54
2019-03-21T10:12:50.935Z,102705.00
2019-03-21T10:15:22.482Z,102705.90
2019-03-21T10:17:54.698Z,102719.83
2019-03-21T10:20:26.097Z,102705.71
2019-03-21T10:22:57.458Z,102706.30
2019-03-21T10:25:29.976Z,102712.03
2019-03-21T10:28:01.938Z,102714.63
2019-03-21T10:30:36.022Z,102714.33
2019-03-21T10:33:10.192Z,102717.11
2019-03-21T10:35:41.768Z,102716.95
2019-03-21T10:38:13.618Z,102715.64
2019-03-21T10:40:44.815Z,102715.58
2019-03-21T10:43:16.206Z,102712.66
2019-03-21T10:45:47.499Z,102708.52
2019-03-21T10:48:18.791Z,102709.83
2019-03-21T10:50:50.161Z,102707.94
2019-03-21T10:53:25.801Z,102706.31
2019-03-21T10:55:57.676Z,102700.44
2019-03-21T10:58:29.682Z,102700.97
2019-03-21T11:01:08.883Z,102696.84
2019-03-21T11:03:40.376Z,102691.52
2019-03-21T11:06:11.733Z,102692.02
2019-03-21T11:08:48.302Z,102687.13
2019-03-21T11:11:19.401Z,102680.25
2019-03-21T11:13:54.874Z,102671.89
2019-03-21T11:16:26.288Z,102674.50
2019-03-21T11:18:57.656Z,102675.77
2019-03-21T11:21:29.058Z,102672.44
2019-03-21T11:24:00.727Z,102646.92
2019-03-21T11:26:33.266Z,102652.84
2019-03-21T11:29:04.639Z,102655.02
2019-03-21T11:31:35.809Z,102650.26
2019-03-21T11:34:07.728Z,102635.80
2019-03-21T11:36:40.168Z,102642.05
2019-03-21T11:39:11.677Z,102639.25
2019-03-21T11:41:42.685Z,102642.92
2019-03-21T11:44:13.666Z,102647.14
2019-03-21T11:46:44.801Z,102639.73
2019-03-21T11:49:17.266Z,102631.81
2019-03-21T11:51:48.189Z,102636.38
2019-03-21T11:54:19.361Z,102643.38
2019-03-21T11:56:50.561Z,102641.89
2019-03-21T11:59:22.249Z,102642.94
2019-03-21T12:01:53.546Z,102632.28
2019-03-21T12:04:24.603Z,102626.83
2019-03-21T12:06:56.465Z,102627.05
2019-03-21T12:09:30.058Z,102625.62
2019-03-21T12:12:01.310Z,102626.44
2019-03-21T12:14:33.034Z,102627.61
2019-03-21T12:17:04.305Z,102619.84
2019-03-21T12:19:35.498Z,102620.94
2019-03-21T12:22:06.738Z,102618.11
2019-03-21T12:24:38.618Z,102620.56
2019-03-21T12:27:10.244Z,102621.41
2019-03-21T12:29:41.277Z,102621.67
2019-03-21T12:32:12.597Z,102626.64
2019-03-21T12:34:43.941Z,102626.23
2019-03-21T12:37:15.518Z,102625.73
2019-03-21T12:39:47.306Z,102624.83
2019-03-21T12:42:18.791Z,102625.55
2019-03-21T12:44:50.703Z,102621.70
2019-03-21T12:47:30.829Z,102616.57
2019-03-21T12:49:55.489Z,102617.88
2019-03-21T12:52:27.077Z,102622.72
2019-03-21T12:54:57.791Z,102616.05
2019-03-21T12:57:28.960Z,102622.81
2019-03-21T13:00:02.952Z,102616.27
2019-03-21T13:02:36.320Z,102613.06
2019-03-21T13:05:08.372Z,102610.12
2019-03-21T13:08:00.969Z,102606.81
2019-03-21T13:11:04.653Z,102609.92
2019-03-21T13:23:35.582Z,102595.52
2019-03-21T13:26:17.097Z,102592.20
2019-03-21T13:28:53.721Z,102599.56
2019-03-21T13:31:48.528Z,102594.41
2019-03-21T13:34:12.878Z,102601.86
2019-03-21T13:36:48.796Z,102589.69
2019-03-21T13:39:33.585Z,102582.13
2019-03-21T13:42:16.591Z,102585.31
2019-03-21T13:44:58.597Z,102583.59
2019-03-21T13:53:45.457Z,102573.33
2019-03-21T13:56:17.050Z,102575.95
2019-03-21T13:58:53.212Z,102563.96
2019-03-21T14:01:35.179Z,102566.65
2019-03-21T14:04:12.610Z,102563.83
2019-03-21T14:06:45.843Z,102565.54
2019-03-21T14:09:31.316Z,102559.22
2019-03-21T14:16:22.737Z,102550.75
2019-03-21T14:19:03.267Z,102554.30
2019-03-21T14:21:38.518Z,102555.77
2019-03-21T14:24:11.441Z,102548.53
2019-03-21T14:26:43.554Z,102552.26
2019-03-21T14:29:14.546Z,102559.89
2019-03-21T14:31:45.794Z,102557.38
2019-03-21T14:34:17.120Z,102561.53
2019-03-21T14:36:48.555Z,102561.31
2019-03-21T14:39:19.761Z,102561.39
2019-03-21T14:41:51.196Z,102560.20
2019-03-21T14:44:23.011Z,102564.41
2019-03-21T14:46:54.571Z,102561.80
2019-03-21T14:49:26.389Z,102561.72
2019-03-21T14:51:58.333Z,102567.64
2019-03-21T14:54:33.734Z,102561.48
2019-03-21T14:57:07.455Z,102567.84
2019-03-21T14:59:39.502Z,102567.92
2019-03-21T15:02:14.230Z,102570.14
2019-03-21T15:04:46.900Z,102569.36
2019-03-21T15:07:20.209Z,102567.72
2019-03-21T15:09:53.710Z,102571.56
2019-03-21T15:12:25.876Z,102562.91
2019-03-21T15:14:57.393Z,102570.88
2019-03-21T15:24:15.904Z,102570.25
2019-03-21T16:16:22.315Z,102550.56
2019-03-21T16:18:56.478Z,102553.30
2019-03-21T16:21:38.961Z,102547.67
2019-03-21T16:37:24.213Z,102550.88
2019-03-21T16:46:49.891Z,102551.44
2019-03-21T16:49:30.795Z,102556.76
2019-03-21T16:52:08.835Z,102554.42
2019-03-21T16:54:39.769Z,102550.46
2019-03-21T16:57:28.710Z,102550.37
2019-03-21T17:00:01.861Z,102549.06
2019-03-21T17:02:45.378Z,102547.53
2019-03-21T17:05:25.635Z,102559.47
2019-03-21T17:08:12.797Z,102558.58
2019-03-21T17:10:52.660Z,102569.39
2019-03-21T17:13:33.405Z,102572.90
2019-03-21T17:16:05.786Z,102566.42
2019-03-21T17:47:51.744Z,102580.78
2019-03-21T17:50:24.194Z,102584.52
2019-03-21T17:56:00.357Z,102585.16
2019-03-21T17:58:31.775Z,102583.84
2019-03-21T18:01:04.542Z,102589.37
2019-03-21T18:03:38.798Z,102594.80
2019-03-21T18:06:11.600Z,102595.55
2019-03-21T18:08:42.351Z,102601.95
2019-03-21T18:11:17.441Z,102597.41
2019-03-21T18:14:04.431Z,102598.77
2019-03-21T18:16:50.908Z,102594.02
2019-03-21T18:19:30.650Z,102596.23
2019-03-21T18:22:02.727Z,102603.21
2019-03-21T18:24:33.650Z,102602.57
2019-03-21T18:27:04.356Z,102596.98
2019-03-21T18:32:38.933Z,102585.78
2019-03-21T18:35:11.265Z,102589.02
2019-03-21T18:44:39.661Z,102594.33
2019-03-21T18:47:53.311Z,102593.84
2019-03-21T18:47:55.897Z,102597.98
2019-03-21T18:50:22.662Z,102596.27
2019-03-21T18:52:56.450Z,102595.51
2019-03-21T18:55:52.499Z,102596.23
2019-03-21T18:58:56.447Z,102598.30
2019-03-21T19:01:19.427Z,102597.16
2019-03-21T19:03:54.657Z,102603.38
2019-03-21T19:06:53.691Z,102601.80
2019-03-21T19:09:46.769Z,102601.57
2019-03-21T19:12:33.171Z,102601.88
2019-03-21T19:15:21.853Z,102607.27
2019-03-21T19:17:54.983Z,102608.17
2019-03-21T19:20:26.166Z,102609.65
2019-03-21T19:22:57.270Z,102611.78
2019-03-21T19:28:15.709Z,102614.16
2019-03-21T19:30:52.440Z,102612.31
2019-03-21T19:33:26.549Z,102604.48
2019-03-21T19:35:58.762Z,102599.80
2019-03-21T19:38:31.466Z,102599.75
2019-03-21T19:41:03.035Z,102600.99
2019-03-21T19:43:34.179Z,102594.09
2019-03-21T19:46:06.903Z,102594.77
2019-03-21T19:48:45.711Z,102596.98
2019-03-21T19:51:10.999Z,102594.04
2019-03-21T19:53:42.319Z,102593.88
2019-03-21T19:56:13.902Z,102588.75
2019-03-21T19:58:45.776Z,102591.12
2019-03-21T20:01:17.641Z,102589.38
2019-03-21T20:03:48.763Z,102581.95
2019-03-21T20:06:20.061Z,102580.28
2019-03-21T20:08:52.101Z,102574.47
2019-03-21T20:11:23.504Z,102585.00
2019-03-21T20:13:58.054Z,102586.75
2019-03-21T20:16:29.004Z,102593.50
2019-03-21T20:19:00.138Z,102588.22
2019-03-21T20:21:32.362Z,102584.71
2019-03-21T20:24:04.690Z,102589.99
2019-03-21T20:26:40.019Z,102583.81
2019-03-21T20:29:11.500Z,102587.69
2019-03-21T20:31:43.485Z,102587.48
2019-03-21T20:34:15.190Z,102594.08
2019-03-21T20:36:47.363Z,102591.98
2019-03-21T20:39:18.391Z,102590.17
2019-03-21T20:41:49.440Z,102592.48
2019-03-21T20:44:20.827Z,102588.56
2019-03-21T20:46:51.962Z,102588.16
2019-03-21T20:49:23.021Z,102585.31
2019-03-21T20:51:56.187Z,102584.08
2019-03-21T20:54:30.388Z,102588.27
2019-03-21T20:57:01.962Z,102591.91
2019-03-21T20:59:33.151Z,102582.70
2019-03-21T21:02:05.068Z,102584.78
2019-03-21T21:04:35.955Z,102585.95
2019-03-21T21:07:07.486Z,102587.39
2019-03-21T21:09:39.027Z,102590.94
2019-03-21T21:12:10.310Z,102589.80
2019-03-21T21:14:41.516Z,102581.73
2019-03-21T21:17:12.674Z,102585.42
2019-03-21T21:19:43.887Z,102591.44
2019-03-21T21:22:14.905Z,102590.94
2019-03-21T21:24:45.624Z,102592.91
2019-03-21T21:27:17.177Z,102593.88
2019-03-21T21:29:48.757Z,102589.56
2019-03-21T21:32:20.412Z,102591.70
2019-03-21T21:34:54.757Z,102588.03
2019-03-21T21:37:26.198Z,102589.80
2019-03-21T21:39:57.573Z,102587.59
2019-03-21T21:42:28.652Z,102587.45
2019-03-21T21:44:59.640Z,102596.82
2019-03-21T21:47:31.124Z,102596.34
2019-03-21T21:50:02.697Z,102595.18
2019-03-21T21:52:41.867Z,102596.34
2019-03-21T21:55:08.604Z,102596.19
2019-03-21T21:57:39.438Z,102590.33
2019-03-21T22:00:13.767Z,102596.17
2019-03-21T22:02:45.884Z,102589.68
2019-03-21T22:05:17.314Z,102588.52
2019-03-21T22:07:48.294Z,102585.27
2019-03-21T22:10:20.347Z,102583.33
2019-03-21T22:12:51.633Z,102590.41
2019-03-21T22:15:23.068Z,102585.45
2019-03-21T22:17:54.383Z,102589.37
2019-03-21T22:20:25.867Z,102589.37
2019-03-21T22:22:57.124Z,102585.70
2019-03-21T22:25:28.081Z,102584.28
2019-03-21T22:27:59.037Z,102583.57
2019-03-21T22:30:30.446Z,102578.36
2019-03-21T22:33:01.860Z,102579.31
2019-03-21T22:35:32.863Z,102576.47
2019-03-21T22:38:03.869Z,102578.03
2019-03-21T22:40:35.332Z,102579.44
2019-03-21T22:43:06.395Z,102580.38
2019-03-21T22:45:37.666Z,102580.91
2019-03-21T22:48:09.345Z,102580.80
2019-03-21T22:50:41.083Z,102582.59
2019-03-21T22:53:12.283Z,102581.55
2019-03-21T22:55:43.330Z,102587.31
2019-03-21T22:58:14.386Z,102584.05
2019-03-21T23:00:47.300Z,102583.35
2019-03-21T23:03:18.840Z,102583.35
2019-03-21T23:05:50.092Z,102585.45
2019-03-21T23:08:21.608Z,102580.62
2019-03-21T23:10:53.420Z,102580.62
2019-03-21T23:13:25.189Z,102574.61
2019-03-21T23:15:58.496Z,102577.31
2019-03-21T23:18:30.104Z,102575.43
2019-03-21T23:21:01.435Z,102566.70
2019-03-21T23:23:32.647Z,102563.36
2019-03-21T23:26:03.894Z,102567.12
2019-03-21T23:28:35.171Z,102565.34
2019-03-21T23:31:06.694Z,102563.80
2019-03-21T23:33:37.747Z,102560.77
2019-03-21T23:36:08.899Z,102570.85
2019-03-21T23:38:40.687Z,102565.94
2019-03-21T23:41:12.262Z,102566.09
2019-03-21T23:43:43.509Z,102565.59
2019-03-21T23:46:15.015Z,102562.08
2019-03-21T23:48:46.297Z,102566.65
2019-03-21T23:51:17.423Z,102557.55
2019-03-21T23:54:18.554Z,102561.90
2019-03-21T23:56:49.464Z,102562.66
2019-03-21T23:59:20.877Z,102571.59
